This is the latest recevied weather packets stored in our database for station/object KI4FRU. If no packets are shown the sender has not sent any weather packets the latest 10 day(s).
| Time | Temp. | Humidity | Pressure | Rain* | Wind** | Luminosity | Snow |
|---|---|---|---|---|---|---|---|
| 1777956283 | 15° C | 72% | 1053.5 hPa | 0 mm | - | 0 W/m² | - |
| 1777955979 | 14.44° C | 75% | 1053.6 hPa | 0 mm | - | 0 W/m² | - |
| 1777955675 | 14.44° C | 75% | 1053.6 hPa | 0 mm | - | 0 W/m² | - |
| 1777955372 | 14.44° C | 78% | 1053.6 hPa | 0 mm | - | 0 W/m² | - |
| 1777955068 | 14.44° C | 78% | 1053.3 hPa | 0 mm | - | 0 W/m² | - |
| 1777954766 | 14.44° C | 78% | 1053.7 hPa | 0 mm | - | 0 W/m² | - |
| 1777954462 | 14.44° C | 77% | 1053.5 hPa | 0 mm | - | 0 W/m² | - |
| 1777954160 | 15° C | 76% | 1053.5 hPa | 0 mm | - | 0 W/m² | - |
| 1777953857 | 15° C | 76% | 1053.7 hPa | 0 mm | - | 0 W/m² | - |
| 1777953553 | 15.56° C | 74% | 1053.7 hPa | 0 mm | - | 0 W/m² | - |
| 1777953250 | 15.56° C | 73% | 1053.7 hPa | 0 mm | - | 0 W/m² | - |
| 1777952947 | 15.56° C | 71% | 1053.8 hPa | 0 mm | - | 0 W/m² | - |
| 1777952643 | 15.56° C | 71% | 1053.7 hPa | 0 mm | - | 0 W/m² | - |
| 1777952341 | 15.56° C | 70% | 1053.7 hPa | 0 mm | - | 0 W/m² | - |
| 1777952037 | 15.56° C | 71% | 1054 hPa | 0 mm | - | 0 W/m² | - |
| 1777951736 | 15.56° C | 71% | 1054 hPa | 0 mm | - | 0 W/m² | - |
| 1777951432 | 16.11° C | 71% | 1053.7 hPa | 0 mm | - | 0 W/m² | - |
| 1777951129 | 16.11° C | 70% | 1054 hPa | 0 mm | - | 0 W/m² | - |
| 1777950826 | 16.11° C | 70% | 1053.8 hPa | 0 mm | - | 0 W/m² | - |
| 1777950523 | 16.67° C | 67% | 1053.8 hPa | 0 mm | - | 0 W/m² | - |
| 1777950218 | 16.67° C | 66% | 1053.7 hPa | 0 mm | - | 0 W/m² | - |
| 1777949914 | 17.22° C | 64% | 1054 hPa | 0 mm | - | 0 W/m² | - |
| 1777949612 | 17.22° C | 63% | 1053.8 hPa | 0 mm | - | 0 W/m² | - |
| 1777949310 | 17.78° C | 63% | 1053.8 hPa | 0 mm | - | 0 W/m² | - |
| 1777949008 | 17.78° C | 61% | 1054.1 hPa | 0 mm | - | 0 W/m² | - |
* Rain latest hour (hover to see other rain measurements)
** Current wind speed in m/s (hover to see current wind gust speed)